sensor_id;sensor_type;location;lat;lon;timestamp;pressure;altitude;pressure_sealevel;temperature;humidity
27729;BME280;15126;42.186;24.340;2023-02-25T00:01:58;98875.16;;;5.83;93.10
27729;BME280;15126;42.186;24.340;2023-02-25T00:04:26;98864.09;;;5.87;92.79
27729;BME280;15126;42.186;24.340;2023-02-25T00:06:53;98862.53;;;5.86;92.42
27729;BME280;15126;42.186;24.340;2023-02-25T00:09:20;98853.44;;;5.82;91.68
27729;BME280;15126;42.186;24.340;2023-02-25T00:11:48;98881.59;;;5.73;92.83
27729;BME280;15126;42.186;24.340;2023-02-25T00:14:15;98866.19;;;5.72;92.98
27729;BME280;15126;42.186;24.340;2023-02-25T00:16:42;98868.94;;;5.72;92.77
27729;BME280;15126;42.186;24.340;2023-02-25T00:19:09;98850.84;;;5.64;92.83
27729;BME280;15126;42.186;24.340;2023-02-25T00:21:36;98858.22;;;5.78;92.44
27729;BME280;15126;42.186;24.340;2023-02-25T00:24:03;98857.06;;;5.75;92.28
27729;BME280;15126;42.186;24.340;2023-02-25T00:26:30;98854.22;;;5.82;91.62
27729;BME280;15126;42.186;24.340;2023-02-25T00:28:58;98853.50;;;5.75;91.21
27729;BME280;15126;42.186;24.340;2023-02-25T00:31:25;98851.44;;;5.82;91.27
27729;BME280;15126;42.186;24.340;2023-02-25T00:33:52;98857.09;;;5.68;92.52
27729;BME280;15126;42.186;24.340;2023-02-25T00:36:20;98848.63;;;5.49;93.66
27729;BME280;15126;42.186;24.340;2023-02-25T00:38:48;98864.75;;;5.54;93.11
27729;BME280;15126;42.186;24.340;2023-02-25T00:41:17;98853.25;;;5.62;93.17
27729;BME280;15126;42.186;24.340;2023-02-25T00:43:48;98841.41;;;5.58;92.60
27729;BME280;15126;42.186;24.340;2023-02-25T00:46:17;98837.84;;;5.58;92.13
27729;BME280;15126;42.186;24.340;2023-02-25T00:48:44;98839.06;;;5.57;92.71
27729;BME280;15126;42.186;24.340;2023-02-25T00:51:13;98820.28;;;5.34;92.92
27729;BME280;15126;42.186;24.340;2023-02-25T00:53:42;98827.34;;;5.42;93.46
27729;BME280;15126;42.186;24.340;2023-02-25T00:56:10;98834.00;;;5.48;93.09
27729;BME280;15126;42.186;24.340;2023-02-25T00:58:40;98829.66;;;5.47;92.33
27729;BME280;15126;42.186;24.340;2023-02-25T01:01:15;98824.88;;;5.51;91.43
27729;BME280;15126;42.186;24.340;2023-02-25T01:03:44;98824.09;;;5.51;90.89
27729;BME280;15126;42.186;24.340;2023-02-25T01:06:11;98818.97;;;5.49;90.55
27729;BME280;15126;42.186;24.340;2023-02-25T01:08:38;98812.25;;;5.50;90.83
27729;BME280;15126;42.186;24.340;2023-02-25T01:11:10;98817.41;;;5.48;90.71
27729;BME280;15126;42.186;24.340;2023-02-25T01:13:37;98805.22;;;5.42;90.97
27729;BME280;15126;42.186;24.340;2023-02-25T01:16:09;98806.47;;;5.34;90.96
27729;BME280;15126;42.186;24.340;2023-02-25T01:18:36;98802.56;;;5.28;92.32
27729;BME280;15126;42.186;24.340;2023-02-25T01:21:06;98808.19;;;5.17;92.82
27729;BME280;15126;42.186;24.340;2023-02-25T01:23:33;98799.88;;;5.17;93.13
27729;BME280;15126;42.186;24.340;2023-02-25T01:26:02;98791.31;;;5.05;93.61
27729;BME280;15126;42.186;24.340;2023-02-25T01:28:29;98790.44;;;5.15;93.04
27729;BME280;15126;42.186;24.340;2023-02-25T01:30:56;98784.53;;;5.13;92.74
27729;BME280;15126;42.186;24.340;2023-02-25T01:33:23;98782.56;;;5.13;92.93
27729;BME280;15126;42.186;24.340;2023-02-25T01:35:50;98790.09;;;5.09;93.00
27729;BME280;15126;42.186;24.340;2023-02-25T01:38:18;98790.53;;;5.04;93.37
27729;BME280;15126;42.186;24.340;2023-02-25T01:40:45;98791.69;;;5.07;93.77
27729;BME280;15126;42.186;24.340;2023-02-25T01:43:13;98783.41;;;5.03;93.32
27729;BME280;15126;42.186;24.340;2023-02-25T01:45:41;98775.66;;;4.88;93.07
27729;BME280;15126;42.186;24.340;2023-02-25T01:48:12;98785.03;;;5.01;93.32
27729;BME280;15126;42.186;24.340;2023-02-25T01:50:44;98781.06;;;5.05;92.01
27729;BME280;15126;42.186;24.340;2023-02-25T01:53:13;98773.94;;;5.08;91.86
27729;BME280;15126;42.186;24.340;2023-02-25T01:55:42;98780.22;;;5.08;91.79
27729;BME280;15126;42.186;24.340;2023-02-25T01:58:11;98782.16;;;5.11;91.57
27729;BME280;15126;42.186;24.340;2023-02-25T02:00:38;98783.34;;;5.14;91.55
27729;BME280;15126;42.186;24.340;2023-02-25T02:03:06;98778.59;;;5.14;90.84
27729;BME280;15126;42.186;24.340;2023-02-25T02:06:03;98784.91;;;5.15;90.98
27729;BME280;15126;42.186;24.340;2023-02-25T02:08:33;98778.59;;;5.14;91.05
27729;BME280;15126;42.186;24.340;2023-02-25T02:11:02;98770.34;;;5.11;90.42
27729;BME280;15126;42.186;24.340;2023-02-25T02:13:30;98763.63;;;5.08;90.67
27729;BME280;15126;42.186;24.340;2023-02-25T02:16:13;98770.75;;;5.09;90.78
27729;BME280;15126;42.186;24.340;2023-02-25T02:18:48;98768.41;;;5.08;90.65
27729;BME280;15126;42.186;24.340;2023-02-25T02:21:25;98761.28;;;5.10;90.71
27729;BME280;15126;42.186;24.340;2023-02-25T02:27:06;98763.25;;;5.06;90.12
27729;BME280;15126;42.186;24.340;2023-02-25T02:29:53;98762.91;;;5.04;90.40
27729;BME280;15126;42.186;24.340;2023-02-25T02:32:31;98770.03;;;5.02;90.84
27729;BME280;15126;42.186;24.340;2023-02-25T02:35:07;98762.22;;;4.90;91.88
27729;BME280;15126;42.186;24.340;2023-02-25T02:37:41;98752.81;;;4.84;93.15
27729;BME280;15126;42.186;24.340;2023-02-25T02:40:22;98767.28;;;4.95;93.08
27729;BME280;15126;42.186;24.340;2023-02-25T02:43:02;98758.97;;;5.02;92.19
27729;BME280;15126;42.186;24.340;2023-02-25T02:45:39;98759.78;;;4.99;92.03
27729;BME280;15126;42.186;24.340;2023-02-25T02:48:12;98743.03;;;4.72;92.34
27729;BME280;15126;42.186;24.340;2023-02-25T02:50:42;98774.06;;;4.90;92.69
27729;BME280;15126;42.186;24.340;2023-02-25T02:53:12;98767.88;;;4.75;93.45
27729;BME280;15126;42.186;24.340;2023-02-25T02:55:43;98763.50;;;4.74;93.56
27729;BME280;15126;42.186;24.340;2023-02-25T02:58:14;98761.19;;;4.66;94.44
27729;BME280;15126;42.186;24.340;2023-02-25T03:00:45;98738.78;;;4.57;93.91
27729;BME280;15126;42.186;24.340;2023-02-25T03:03:18;98760.03;;;4.67;93.79
27729;BME280;15126;42.186;24.340;2023-02-25T03:05:49;98763.97;;;4.62;93.96
27729;BME280;15126;42.186;24.340;2023-02-25T03:08:21;98760.03;;;4.63;93.33
27729;BME280;15126;42.186;24.340;2023-02-25T03:10:51;98755.66;;;4.69;93.59
27729;BME280;15126;42.186;24.340;2023-02-25T03:13:18;98762.03;;;4.59;94.06
27729;BME280;15126;42.186;24.340;2023-02-25T03:15:45;98768.31;;;4.67;93.95
27729;BME280;15126;42.186;24.340;2023-02-25T03:18:21;98767.16;;;4.61;92.11
27729;BME280;15126;42.186;24.340;2023-02-25T03:20:52;98758.50;;;4.59;92.12
27729;BME280;15126;42.186;24.340;2023-02-25T03:23:29;98759.31;;;4.56;92.16
27729;BME280;15126;42.186;24.340;2023-02-25T03:26:01;98755.38;;;4.50;91.57
27729;BME280;15126;42.186;24.340;2023-02-25T03:28:35;98758.09;;;4.57;91.41
27729;BME280;15126;42.186;24.340;2023-02-25T03:31:03;98753.78;;;4.52;91.44
27729;BME280;15126;42.186;24.340;2023-02-25T03:33:38;98753.00;;;4.52;91.35
27729;BME280;15126;42.186;24.340;2023-02-25T03:36:16;98750.66;;;4.54;90.93
27729;BME280;15126;42.186;24.340;2023-02-25T03:38:47;98745.13;;;4.50;91.52
27729;BME280;15126;42.186;24.340;2023-02-25T03:41:18;98748.28;;;4.52;91.09
27729;BME280;15126;42.186;24.340;2023-02-25T03:43:51;98728.66;;;4.33;92.52
27729;BME280;15126;42.186;24.340;2023-02-25T03:46:20;98734.88;;;4.51;92.00
27729;BME280;15126;42.186;24.340;2023-02-25T03:48:49;98705.84;;;4.29;91.33
27729;BME280;15126;42.186;24.340;2023-02-25T03:51:20;98727.81;;;4.46;91.27
27729;BME280;15126;42.186;24.340;2023-02-25T03:53:49;98734.47;;;4.49;90.93
27729;BME280;15126;42.186;24.340;2023-02-25T03:56:16;98736.06;;;4.50;91.43
27729;BME280;15126;42.186;24.340;2023-02-25T03:58:43;98728.56;;;4.50;90.76
27729;BME280;15126;42.186;24.340;2023-02-25T04:01:13;98727.78;;;4.50;90.99
27729;BME280;15126;42.186;24.340;2023-02-25T04:03:41;98717.97;;;4.45;91.19
27729;BME280;15126;42.186;24.340;2023-02-25T04:06:10;98714.78;;;4.50;91.14
27729;BME280;15126;42.186;24.340;2023-02-25T04:08:38;98708.03;;;4.51;90.86
27729;BME280;15126;42.186;24.340;2023-02-25T04:11:05;98697.19;;;4.27;92.52
27729;BME280;15126;42.186;24.340;2023-02-25T04:13:32;98701.88;;;4.33;92.75
27729;BME280;15126;42.186;24.340;2023-02-25T04:15:59;98718.13;;;4.17;93.93
27729;BME280;15126;42.186;24.340;2023-02-25T04:18:26;98712.53;;;4.28;92.77
27729;BME280;15126;42.186;24.340;2023-02-25T04:20:53;98707.38;;;4.33;93.66
27729;BME280;15126;42.186;24.340;2023-02-25T04:23:21;98694.38;;;4.37;93.06
27729;BME280;15126;42.186;24.340;2023-02-25T04:25:49;98705.00;;;4.35;92.84
27729;BME280;15126;42.186;24.340;2023-02-25T04:28:16;98675.56;;;4.14;93.73
27729;BME280;15126;42.186;24.340;2023-02-25T04:30:42;98704.31;;;4.20;94.57
27729;BME280;15126;42.186;24.340;2023-02-25T04:33:10;98711.38;;;4.25;94.41
27729;BME280;15126;42.186;24.340;2023-02-25T04:35:37;98716.16;;;4.21;94.71
27729;BME280;15126;42.186;24.340;2023-02-25T04:38:04;98703.59;;;4.02;95.51
27729;BME280;15126;42.186;24.340;2023-02-25T04:40:32;98698.88;;;4.03;94.87
27729;BME280;15126;42.186;24.340;2023-02-25T04:42:59;98695.69;;;4.08;95.30
27729;BME280;15126;42.186;24.340;2023-02-25T04:45:26;98684.72;;;4.04;95.37
27729;BME280;15126;42.186;24.340;2023-02-25T04:47:53;98687.03;;;4.13;94.97
27729;BME280;15126;42.186;24.340;2023-02-25T04:50:22;98657.88;;;4.08;94.97
27729;BME280;15126;42.186;24.340;2023-02-25T04:52:49;98664.88;;;4.24;93.61
27729;BME280;15126;42.186;24.340;2023-02-25T04:55:16;98655.09;;;4.15;93.50
27729;BME280;15126;42.186;24.340;2023-02-25T04:57:45;98660.91;;;4.25;93.84
27729;BME280;15126;42.186;24.340;2023-02-25T05:00:14;98648.72;;;4.18;92.73
27729;BME280;15126;42.186;24.340;2023-02-25T05:02:44;98661.78;;;4.18;93.10
27729;BME280;15126;42.186;24.340;2023-02-25T05:05:11;98668.47;;;4.13;92.73
27729;BME280;15126;42.186;24.340;2023-02-25T05:07:38;98673.59;;;4.15;93.34
27729;BME280;15126;42.186;24.340;2023-02-25T05:10:06;98666.88;;;4.16;93.17
27729;BME280;15126;42.186;24.340;2023-02-25T05:12:34;98677.97;;;4.12;93.29
27729;BME280;15126;42.186;24.340;2023-02-25T05:15:03;98673.63;;;4.08;93.50
27729;BME280;15126;42.186;24.340;2023-02-25T05:17:30;98663.81;;;4.07;93.53
27729;BME280;15126;42.186;24.340;2023-02-25T05:19:57;98663.75;;;4.14;94.02
27729;BME280;15126;42.186;24.340;2023-02-25T05:22:24;98663.75;;;4.17;93.77
27729;BME280;15126;42.186;24.340;2023-02-25T05:24:51;98688.56;;;4.21;93.86
27729;BME280;15126;42.186;24.340;2023-02-25T05:27:18;98683.41;;;4.23;93.84
27729;BME280;15126;42.186;24.340;2023-02-25T05:29:44;98666.84;;;4.23;92.77
27729;BME280;15126;42.186;24.340;2023-02-25T05:32:13;98671.56;;;4.26;93.04
27729;BME280;15126;42.186;24.340;2023-02-25T05:34:39;98670.78;;;4.22;93.43
27729;BME280;15126;42.186;24.340;2023-02-25T05:37:07;98668.00;;;4.29;94.26
27729;BME280;15126;42.186;24.340;2023-02-25T05:39:33;98670.03;;;4.18;94.64
27729;BME280;15126;42.186;24.340;2023-02-25T05:42:00;98671.16;;;4.24;94.69
27729;BME280;15126;42.186;24.340;2023-02-25T05:44:27;98671.16;;;4.28;94.59
27729;BME280;15126;42.186;24.340;2023-02-25T05:46:55;98688.03;;;4.40;94.79
27729;BME280;15126;42.186;24.340;2023-02-25T05:49:24;98681.66;;;4.50;94.21
27729;BME280;15126;42.186;24.340;2023-02-25T05:51:50;98684.31;;;4.61;93.43
27729;BME280;15126;42.186;24.340;2023-02-25T05:54:17;98670.81;;;4.73;92.96
27729;BME280;15126;42.186;24.340;2023-02-25T05:56:44;98660.44;;;4.85;92.95
27729;BME280;15126;42.186;24.340;2023-02-25T05:59:11;98658.38;;;4.96;92.32
27729;BME280;15126;42.186;24.340;2023-02-25T06:01:38;98653.63;;;4.96;91.83
27729;BME280;15126;42.186;24.340;2023-02-25T06:04:04;98663.84;;;5.03;92.40
27729;BME280;15126;42.186;24.340;2023-02-25T06:06:33;98665.34;;;5.11;92.58
27729;BME280;15126;42.186;24.340;2023-02-25T06:09:00;98683.03;;;5.17;92.54
27729;BME280;15126;42.186;24.340;2023-02-25T06:11:30;98675.78;;;5.30;91.46
27729;BME280;15126;42.186;24.340;2023-02-25T06:13:58;98688.72;;;5.40;90.93
27729;BME280;15126;42.186;24.340;2023-02-25T06:16:26;98695.38;;;5.46;89.94
27729;BME280;15126;42.186;24.340;2023-02-25T06:18:54;98696.03;;;5.57;90.09
27729;BME280;15126;42.186;24.340;2023-02-25T06:21:21;98696.31;;;5.66;88.64
27729;BME280;15126;42.186;24.340;2023-02-25T06:23:51;98691.00;;;5.82;89.68
27729;BME280;15126;42.186;24.340;2023-02-25T06:26:18;98689.22;;;5.99;89.05
27729;BME280;15126;42.186;24.340;2023-02-25T06:28:45;98694.63;;;6.10;88.70
27729;BME280;15126;42.186;24.340;2023-02-25T06:31:14;98687.97;;;6.04;88.12
27729;BME280;15126;42.186;24.340;2023-02-25T06:33:41;98682.25;;;6.18;88.93
27729;BME280;15126;42.186;24.340;2023-02-25T06:36:08;98701.44;;;6.32;88.81
27729;BME280;15126;42.186;24.340;2023-02-25T06:38:36;98716.28;;;6.45;88.54
27729;BME280;15126;42.186;24.340;2023-02-25T06:41:06;98722.56;;;6.49;87.70
27729;BME280;15126;42.186;24.340;2023-02-25T06:43:34;98711.88;;;6.47;87.56
27729;BME280;15126;42.186;24.340;2023-02-25T06:46:04;98723.25;;;6.56;87.24
27729;BME280;15126;42.186;24.340;2023-02-25T06:48:31;98735.09;;;6.57;87.68
27729;BME280;15126;42.186;24.340;2023-02-25T06:50:58;98748.56;;;6.55;87.45
27729;BME280;15126;42.186;24.340;2023-02-25T06:53:26;98727.94;;;6.59;87.29
27729;BME280;15126;42.186;24.340;2023-02-25T06:55:53;98727.03;;;6.66;86.60
27729;BME280;15126;42.186;24.340;2023-02-25T06:58:21;98718.53;;;6.53;87.12
27729;BME280;15126;42.186;24.340;2023-02-25T07:00:48;98725.22;;;6.56;87.54
27729;BME280;15126;42.186;24.340;2023-02-25T07:03:14;98722.09;;;6.54;87.38
27729;BME280;15126;42.186;24.340;2023-02-25T07:05:42;98725.00;;;6.43;87.88
27729;BME280;15126;42.186;24.340;2023-02-25T07:08:09;98712.47;;;6.35;87.67
27729;BME280;15126;42.186;24.340;2023-02-25T07:10:36;98728.28;;;6.35;87.93
27729;BME280;15126;42.186;24.340;2023-02-25T07:13:05;98726.53;;;6.48;87.78
27729;BME280;15126;42.186;24.340;2023-02-25T07:15:33;98698.19;;;6.37;86.91
27729;BME280;15126;42.186;24.340;2023-02-25T07:18:00;98732.81;;;6.52;86.19
27729;BME280;15126;42.186;24.340;2023-02-25T07:20:27;98730.41;;;6.54;85.95
27729;BME280;15126;42.186;24.340;2023-02-25T07:22:54;98718.06;;;6.58;86.84
27729;BME280;15126;42.186;24.340;2023-02-25T07:25:21;98707.34;;;6.60;86.86
27729;BME280;15126;42.186;24.340;2023-02-25T07:27:48;98704.03;;;6.69;85.86
27729;BME280;15126;42.186;24.340;2023-02-25T07:30:15;98712.56;;;6.82;86.35
27729;BME280;15126;42.186;24.340;2023-02-25T07:32:43;98711.28;;;6.86;86.37
27729;BME280;15126;42.186;24.340;2023-02-25T07:35:10;98692.69;;;6.87;86.29
27729;BME280;15126;42.186;24.340;2023-02-25T07:37:38;98696.06;;;6.98;85.83
27729;BME280;15126;42.186;24.340;2023-02-25T07:40:06;98678.75;;;7.13;85.05
27729;BME280;15126;42.186;24.340;2023-02-25T07:42:38;98690.56;;;7.17;84.34
27729;BME280;15126;42.186;24.340;2023-02-25T07:45:07;98680.06;;;7.29;84.75
27729;BME280;15126;42.186;24.340;2023-02-25T07:47:35;98672.53;;;7.29;84.83
27729;BME280;15126;42.186;24.340;2023-02-25T07:50:05;98674.13;;;7.50;85.15
27729;BME280;15126;42.186;24.340;2023-02-25T07:52:32;98681.59;;;7.72;84.70
27729;BME280;15126;42.186;24.340;2023-02-25T07:54:59;98673.72;;;7.91;83.55
27729;BME280;15126;42.186;24.340;2023-02-25T07:57:27;98667.78;;;7.89;82.63
27729;BME280;15126;42.186;24.340;2023-02-25T07:59:54;98668.63;;;8.05;82.79
27729;BME280;15126;42.186;24.340;2023-02-25T08:02:26;98672.13;;;8.09;81.92
27729;BME280;15126;42.186;24.340;2023-02-25T08:04:53;98662.31;;;8.21;81.95
27729;BME280;15126;42.186;24.340;2023-02-25T08:07:21;98652.00;;;8.21;82.03
27729;BME280;15126;42.186;24.340;2023-02-25T08:09:48;98640.88;;;8.21;82.73
27729;BME280;15126;42.186;24.340;2023-02-25T08:12:14;98640.03;;;8.24;83.30
27729;BME280;15126;42.186;24.340;2023-02-25T08:14:41;98627.84;;;8.38;82.92
27729;BME280;15126;42.186;24.340;2023-02-25T08:17:10;98591.66;;;8.42;82.66
27729;BME280;15126;42.186;24.340;2023-02-25T08:19:37;98590.06;;;8.57;83.03
27729;BME280;15126;42.186;24.340;2023-02-25T08:22:04;98618.69;;;8.86;81.81
27729;BME280;15126;42.186;24.340;2023-02-25T08:24:33;98610.38;;;9.02;80.07
27729;BME280;15126;42.186;24.340;2023-02-25T08:26:59;98595.53;;;9.21;80.32
27729;BME280;15126;42.186;24.340;2023-02-25T08:29:26;98604.25;;;9.36;79.26
27729;BME280;15126;42.186;24.340;2023-02-25T08:31:54;98599.41;;;9.52;79.02
27729;BME280;15126;42.186;24.340;2023-02-25T08:34:20;98592.75;;;9.63;78.71
27729;BME280;15126;42.186;24.340;2023-02-25T08:36:47;98598.38;;;9.88;78.53
27729;BME280;15126;42.186;24.340;2023-02-25T08:39:14;98592.72;;;9.91;77.93
27729;BME280;15126;42.186;24.340;2023-02-25T08:41:44;98590.38;;;10.02;76.84
27729;BME280;15126;42.186;24.340;2023-02-25T08:44:11;98594.63;;;10.07;76.34
27729;BME280;15126;42.186;24.340;2023-02-25T08:46:37;98593.19;;;10.28;77.75
27729;BME280;15126;42.186;24.340;2023-02-25T08:49:04;98585.84;;;10.34;76.59
27729;BME280;15126;42.186;24.340;2023-02-25T08:51:32;98577.91;;;10.45;76.82
27729;BME280;15126;42.186;24.340;2023-02-25T08:54:00;98566.53;;;10.52;77.00
27729;BME280;15126;42.186;24.340;2023-02-25T08:56:31;98570.75;;;10.69;76.34
27729;BME280;15126;42.186;24.340;2023-02-25T08:59:01;98573.38;;;10.85;76.14
27729;BME280;15126;42.186;24.340;2023-02-25T09:01:28;98560.38;;;11.04;77.11
27729;BME280;15126;42.186;24.340;2023-02-25T09:04:09;98571.94;;;11.15;76.21
27729;BME280;15126;42.186;24.340;2023-02-25T09:06:36;98569.84;;;11.28;73.62
27729;BME280;15126;42.186;24.340;2023-02-25T09:09:03;98574.50;;;11.44;73.18
27729;BME280;15126;42.186;24.340;2023-02-25T09:11:30;98571.91;;;11.49;74.99
27729;BME280;15126;42.186;24.340;2023-02-25T09:13:57;98573.22;;;11.66;72.01
27729;BME280;15126;42.186;24.340;2023-02-25T09:16:28;98579.41;;;11.83;72.29
27729;BME280;15126;42.186;24.340;2023-02-25T09:18:55;98583.09;;;12.02;72.56
27729;BME280;15126;42.186;24.340;2023-02-25T09:21:22;98573.84;;;12.14;71.91
27729;BME280;15126;42.186;24.340;2023-02-25T09:23:51;98552.50;;;11.98;70.24
27729;BME280;15126;42.186;24.340;2023-02-25T09:26:18;98558.47;;;12.09;70.07
27729;BME280;15126;42.186;24.340;2023-02-25T09:28:46;98548.78;;;12.01;70.95
27729;BME280;15126;42.186;24.340;2023-02-25T09:31:14;98548.19;;;12.06;70.51
27729;BME280;15126;42.186;24.340;2023-02-25T09:33:43;98546.66;;;12.14;71.12
27729;BME280;15126;42.186;24.340;2023-02-25T09:36:11;98539.41;;;12.26;72.07
27729;BME280;15126;42.186;24.340;2023-02-25T09:38:40;98560.84;;;12.29;71.62
27729;BME280;15126;42.186;24.340;2023-02-25T09:41:17;98520.78;;;12.23;70.52
27729;BME280;15126;42.186;24.340;2023-02-25T09:43:57;98510.06;;;12.30;70.42
27729;BME280;15126;42.186;24.340;2023-02-25T09:46:27;98515.22;;;12.41;71.13
27729;BME280;15126;42.186;24.340;2023-02-25T09:49:00;98520.53;;;12.57;71.18
27729;BME280;15126;42.186;24.340;2023-02-25T09:51:31;98514.03;;;12.60;70.70
27729;BME280;15126;42.186;24.340;2023-02-25T09:54:08;98499.13;;;12.63;68.71
27729;BME280;15126;42.186;24.340;2023-02-25T09:56:39;98511.25;;;12.87;68.46
27729;BME280;15126;42.186;24.340;2023-02-25T09:59:12;98508.59;;;12.84;69.47
27729;BME280;15126;42.186;24.340;2023-02-25T10:01:45;98500.38;;;12.89;69.79
27729;BME280;15126;42.186;24.340;2023-02-25T10:04:22;98487.75;;;12.67;69.25
27729;BME280;15126;42.186;24.340;2023-02-25T10:06:53;98484.03;;;12.79;69.08
27729;BME280;15126;42.186;24.340;2023-02-25T10:09:28;98488.56;;;12.76;68.94
27729;BME280;15126;42.186;24.340;2023-02-25T10:12:00;98460.41;;;12.71;68.46
27729;BME280;15126;42.186;24.340;2023-02-25T10:14:46;98465.88;;;12.74;70.46
27729;BME280;15126;42.186;24.340;2023-02-25T10:17:23;98463.97;;;12.89;68.96
27729;BME280;15126;42.186;24.340;2023-02-25T10:20:09;98478.91;;;12.86;69.24
27729;BME280;15126;42.186;24.340;2023-02-25T10:22:47;98468.66;;;12.83;69.40
27729;BME280;15126;42.186;24.340;2023-02-25T10:25:19;98458.22;;;12.84;69.17
27729;BME280;15126;42.186;24.340;2023-02-25T10:27:53;98444.22;;;13.02;68.91
27729;BME280;15126;42.186;24.340;2023-02-25T10:30:24;98437.38;;;13.03;68.43
27729;BME280;15126;42.186;24.340;2023-02-25T10:32:53;98431.97;;;12.90;68.59
27729;BME280;15126;42.186;24.340;2023-02-25T10:35:25;98413.75;;;12.95;68.74
27729;BME280;15126;42.186;24.340;2023-02-25T10:37:53;98416.75;;;12.82;68.85
27729;BME280;15126;42.186;24.340;2023-02-25T10:40:23;98419.50;;;12.91;68.49
27729;BME280;15126;42.186;24.340;2023-02-25T10:42:52;98425.09;;;12.91;69.47
27729;BME280;15126;42.186;24.340;2023-02-25T10:45:23;98413.31;;;12.87;68.92
27729;BME280;15126;42.186;24.340;2023-02-25T10:47:54;98425.41;;;13.02;68.61
27729;BME280;15126;42.186;24.340;2023-02-25T10:50:27;98411.28;;;13.15;68.85
27729;BME280;15126;42.186;24.340;2023-02-25T10:52:57;98421.03;;;13.29;68.95
27729;BME280;15126;42.186;24.340;2023-02-25T10:55:39;98399.53;;;13.44;68.65
27729;BME280;15126;42.186;24.340;2023-02-25T10:58:30;98397.63;;;13.50;66.61
27729;BME280;15126;42.186;24.340;2023-02-25T11:01:00;98414.59;;;13.46;69.15
27729;BME280;15126;42.186;24.340;2023-02-25T11:03:30;98392.19;;;13.46;68.12
27729;BME280;15126;42.186;24.340;2023-02-25T11:06:13;98378.06;;;13.41;68.08
27729;BME280;15126;42.186;24.340;2023-02-25T11:08:42;98381.47;;;13.45;68.04
27729;BME280;15126;42.186;24.340;2023-02-25T11:11:18;98344.03;;;13.33;67.35
27729;BME280;15126;42.186;24.340;2023-02-25T11:14:00;98360.56;;;13.55;67.08
27729;BME280;15126;42.186;24.340;2023-02-25T11:16:32;98364.28;;;13.61;67.66
27729;BME280;15126;42.186;24.340;2023-02-25T11:19:09;98349.34;;;13.64;66.50
27729;BME280;15126;42.186;24.340;2023-02-25T11:21:41;98370.41;;;13.83;67.16
27729;BME280;15126;42.186;24.340;2023-02-25T11:24:11;98345.09;;;13.92;65.40
27729;BME280;15126;42.186;24.340;2023-02-25T11:26:42;98350.03;;;13.97;65.86
27729;BME280;15126;42.186;24.340;2023-02-25T11:29:13;98365.31;;;14.20;65.04
27729;BME280;15126;42.186;24.340;2023-02-25T11:31:41;98352.66;;;14.24;63.17
27729;BME280;15126;42.186;24.340;2023-02-25T11:34:13;98350.03;;;14.45;64.53
27729;BME280;15126;42.186;24.340;2023-02-25T11:36:42;98319.66;;;14.43;62.59
27729;BME280;15126;42.186;24.340;2023-02-25T11:39:15;98329.78;;;14.64;60.11
27729;BME280;15126;42.186;24.340;2023-02-25T11:41:43;98324.84;;;14.59;61.81
27729;BME280;15126;42.186;24.340;2023-02-25T11:44:19;98289.00;;;14.54;62.48
27729;BME280;15126;42.186;24.340;2023-02-25T11:49:51;98328.81;;;14.97;61.74
27729;BME280;15126;42.186;24.340;2023-02-25T11:52:31;98320.56;;;14.93;60.62
27729;BME280;15126;42.186;24.340;2023-02-25T11:55:09;98302.44;;;15.09;60.84
27729;BME280;15126;42.186;24.340;2023-02-25T11:57:44;98319.56;;;15.25;59.94
27729;BME280;15126;42.186;24.340;2023-02-25T12:00:21;98308.25;;;15.49;58.44
27729;BME280;15126;42.186;24.340;2023-02-25T12:03:00;98306.84;;;15.59;58.62
27729;BME280;15126;42.186;24.340;2023-02-25T12:05:51;98276.00;;;15.65;57.31
27729;BME280;15126;42.186;24.340;2023-02-25T12:08:35;98276.47;;;15.63;57.14
27729;BME280;15126;42.186;24.340;2023-02-25T12:23:56;98263.44;;;16.00;55.42
27729;BME280;15126;42.186;24.340;2023-02-25T12:26:39;98251.91;;;15.98;54.67
27729;BME280;15126;42.186;24.340;2023-02-25T12:29:21;98258.94;;;16.08;54.62
27729;BME280;15126;42.186;24.340;2023-02-25T12:32:10;98251.69;;;16.02;53.72
27729;BME280;15126;42.186;24.340;2023-02-25T12:37:45;98260.53;;;16.15;54.09
27729;BME280;15126;42.186;24.340;2023-02-25T12:40:35;98252.22;;;16.26;54.21
27729;BME280;15126;42.186;24.340;2023-02-25T12:43:17;98235.78;;;16.19;53.79
27729;BME280;15126;42.186;24.340;2023-02-25T12:49:19;98232.34;;;16.09;53.41
27729;BME280;15126;42.186;24.340;2023-02-25T12:55:24;98253.25;;;16.03;54.87
27729;BME280;15126;42.186;24.340;2023-02-25T12:58:06;98228.41;;;16.01;54.85
27729;BME280;15126;42.186;24.340;2023-02-25T13:04:05;98232.22;;;15.98;55.33
27729;BME280;15126;42.186;24.340;2023-02-25T13:06:58;98232.28;;;16.04;55.12
27729;BME280;15126;42.186;24.340;2023-02-25T13:09:36;98242.34;;;16.11;54.59
27729;BME280;15126;42.186;24.340;2023-02-25T13:12:20;98239.31;;;16.14;53.33
27729;BME280;15126;42.186;24.340;2023-02-25T13:15:01;98233.91;;;16.11;54.14
27729;BME280;15126;42.186;24.340;2023-02-25T13:17:57;98226.78;;;16.15;54.46
27729;BME280;15126;42.186;24.340;2023-02-25T13:20:46;98230.31;;;16.10;54.73
27729;BME280;15126;42.186;24.340;2023-02-25T13:23:34;98243.66;;;16.15;54.17
27729;BME280;15126;42.186;24.340;2023-02-25T13:26:13;98248.28;;;16.18;54.74
27729;BME280;15126;42.186;24.340;2023-02-25T13:29:10;98248.28;;;16.18;53.08
27729;BME280;15126;42.186;24.340;2023-02-25T13:31:47;98246.53;;;16.21;53.39
27729;BME280;15126;42.186;24.340;2023-02-25T13:34:26;98233.31;;;16.27;53.26
27729;BME280;15126;42.186;24.340;2023-02-25T13:37:15;98244.75;;;16.23;53.92
27729;BME280;15126;42.186;24.340;2023-02-25T13:39:55;98240.03;;;16.35;55.34
27729;BME280;15126;42.186;24.340;2023-02-25T13:42:40;98224.19;;;16.37;54.51
27729;BME280;15126;42.186;24.340;2023-02-25T13:45:34;98224.53;;;16.45;53.98
27729;BME280;15126;42.186;24.340;2023-02-25T13:48:22;98219.63;;;16.40;52.94
27729;BME280;15126;42.186;24.340;2023-02-25T13:51:15;98193.59;;;16.19;52.53